sensor_id;sensor_type;location;lat;lon;timestamp;pressure;altitude;pressure_sealevel;temperature;humidity
3917;BME280;1973;50.518;7.318;2022-07-29T00:00:58;100790.09;;;19.69;98.19
3917;BME280;1973;50.518;7.318;2022-07-29T00:03:24;100783.91;;;19.67;99.53
3917;BME280;1973;50.518;7.318;2022-07-29T00:05:51;100791.19;;;19.63;100.00
3917;BME280;1973;50.518;7.318;2022-07-29T00:08:19;100792.28;;;19.57;100.00
3917;BME280;1973;50.518;7.318;2022-07-29T00:10:46;100798.44;;;19.54;100.00
3917;BME280;1973;50.518;7.318;2022-07-29T00:13:12;100798.94;;;19.51;100.00
3917;BME280;1973;50.518;7.318;2022-07-29T00:15:39;100787.50;;;19.48;100.00
3917;BME280;1973;50.518;7.318;2022-07-29T00:18:06;100794.47;;;19.45;100.00
3917;BME280;1973;50.518;7.318;2022-07-29T00:20:32;100793.94;;;19.43;100.00
3917;BME280;1973;50.518;7.318;2022-07-29T00:22:59;100800.63;;;19.42;100.00
3917;BME280;1973;50.518;7.318;2022-07-29T00:25:25;100793.31;;;19.41;100.00
3917;BME280;1973;50.518;7.318;2022-07-29T00:27:51;100803.63;;;19.40;100.00
3917;BME280;1973;50.518;7.318;2022-07-29T00:30:18;100799.44;;;19.38;100.00
3917;BME280;1973;50.518;7.318;2022-07-29T00:32:44;100794.41;;;19.35;100.00
3917;BME280;1973;50.518;7.318;2022-07-29T00:35:11;100792.19;;;19.32;100.00
3917;BME280;1973;50.518;7.318;2022-07-29T00:37:56;100806.09;;;19.27;100.00
3917;BME280;1973;50.518;7.318;2022-07-29T00:40:23;100797.19;;;19.25;100.00
3917;BME280;1973;50.518;7.318;2022-07-29T00:42:51;100784.31;;;19.24;100.00
3917;BME280;1973;50.518;7.318;2022-07-29T00:45:18;100785.97;;;19.20;100.00
3917;BME280;1973;50.518;7.318;2022-07-29T00:47:46;100776.75;;;19.19;100.00
3917;BME280;1973;50.518;7.318;2022-07-29T00:50:13;100779.56;;;19.19;100.00
3917;BME280;1973;50.518;7.318;2022-07-29T00:52:41;100767.53;;;19.19;100.00
3917;BME280;1973;50.518;7.318;2022-07-29T00:55:10;100768.69;;;19.18;100.00
3917;BME280;1973;50.518;7.318;2022-07-29T00:57:37;100761.13;;;19.13;100.00
3917;BME280;1973;50.518;7.318;2022-07-29T01:00:06;100769.50;;;19.13;100.00
3917;BME280;1973;50.518;7.318;2022-07-29T01:02:33;100761.38;;;19.12;100.00
3917;BME280;1973;50.518;7.318;2022-07-29T01:05:01;100758.59;;;19.12;100.00
3917;BME280;1973;50.518;7.318;2022-07-29T01:07:28;100756.06;;;19.05;100.00
3917;BME280;1973;50.518;7.318;2022-07-29T01:09:56;100759.09;;;19.04;100.00
3917;BME280;1973;50.518;7.318;2022-07-29T01:12:25;100752.97;;;19.02;100.00
3917;BME280;1973;50.518;7.318;2022-07-29T01:14:53;100745.69;;;19.01;100.00
3917;BME280;1973;50.518;7.318;2022-07-29T01:17:26;100742.34;;;18.99;100.00
3917;BME280;1973;50.518;7.318;2022-07-29T01:31:26;100729.44;;;18.82;100.00
3917;BME280;1973;50.518;7.318;2022-07-29T01:33:58;100730.00;;;18.79;100.00
3917;BME280;1973;50.518;7.318;2022-07-29T01:36:35;100726.06;;;18.75;100.00
3917;BME280;1973;50.518;7.318;2022-07-29T01:39:16;100720.44;;;18.70;100.00
3917;BME280;1973;50.518;7.318;2022-07-29T01:41:51;100725.72;;;18.67;100.00
3917;BME280;1973;50.518;7.318;2022-07-29T01:44:39;100720.41;;;18.60;100.00
3917;BME280;1973;50.518;7.318;2022-07-29T01:47:14;100718.16;;;18.57;100.00
3917;BME280;1973;50.518;7.318;2022-07-29T01:49:47;100710.88;;;18.51;100.00
3917;BME280;1973;50.518;7.318;2022-07-29T01:52:20;100716.13;;;18.47;100.00
3917;BME280;1973;50.518;7.318;2022-07-29T01:54:54;100712.19;;;18.43;100.00
3917;BME280;1973;50.518;7.318;2022-07-29T01:57:31;100715.47;;;18.35;100.00
3917;BME280;1973;50.518;7.318;2022-07-29T02:00:00;100721.00;;;18.30;100.00
3917;BME280;1973;50.518;7.318;2022-07-29T02:02:28;100724.34;;;18.27;100.00
3917;BME280;1973;50.518;7.318;2022-07-29T02:04:57;100723.75;;;18.20;100.00
3917;BME280;1973;50.518;7.318;2022-07-29T02:07:27;100724.53;;;18.16;100.00
3917;BME280;1973;50.518;7.318;2022-07-29T02:09:56;100719.19;;;18.09;100.00
3917;BME280;1973;50.518;7.318;2022-07-29T02:12:25;100726.16;;;18.07;100.00
3917;BME280;1973;50.518;7.318;2022-07-29T02:14:54;100721.63;;;18.00;100.00
3917;BME280;1973;50.518;7.318;2022-07-29T02:17:31;100719.31;;;17.92;100.00
3917;BME280;1973;50.518;7.318;2022-07-29T02:20:00;100717.06;;;17.84;100.00
3917;BME280;1973;50.518;7.318;2022-07-29T02:22:29;100723.41;;;17.80;100.00
3917;BME280;1973;50.518;7.318;2022-07-29T02:25:00;100723.66;;;17.73;100.00
3917;BME280;1973;50.518;7.318;2022-07-29T02:27:29;100718.00;;;17.68;100.00
3917;BME280;1973;50.518;7.318;2022-07-29T02:29:57;100712.13;;;17.65;100.00
3917;BME280;1973;50.518;7.318;2022-07-29T02:32:27;100715.72;;;17.60;100.00
3917;BME280;1973;50.518;7.318;2022-07-29T02:34:55;100716.25;;;17.57;100.00
3917;BME280;1973;50.518;7.318;2022-07-29T02:37:23;100722.31;;;17.54;100.00
3917;BME280;1973;50.518;7.318;2022-07-29T02:39:52;100717.28;;;17.51;100.00
3917;BME280;1973;50.518;7.318;2022-07-29T02:42:21;100716.13;;;17.47;100.00
3917;BME280;1973;50.518;7.318;2022-07-29T02:44:49;100718.84;;;17.42;100.00
3917;BME280;1973;50.518;7.318;2022-07-29T02:47:20;100718.53;;;17.38;100.00
3917;BME280;1973;50.518;7.318;2022-07-29T02:50:03;100711.78;;;17.34;100.00
3917;BME280;1973;50.518;7.318;2022-07-29T02:52:37;100720.13;;;17.29;100.00
3917;BME280;1973;50.518;7.318;2022-07-29T02:55:22;100720.34;;;17.28;100.00
3917;BME280;1973;50.518;7.318;2022-07-29T02:57:54;100713.09;;;17.27;100.00
3917;BME280;1973;50.518;7.318;2022-07-29T03:00:31;100713.88;;;17.22;100.00
3917;BME280;1973;50.518;7.318;2022-07-29T03:03:00;100716.34;;;17.19;100.00
3917;BME280;1973;50.518;7.318;2022-07-29T03:05:30;100710.75;;;17.14;100.00
3917;BME280;1973;50.518;7.318;2022-07-29T03:08:00;100724.59;;;17.09;100.00
3917;BME280;1973;50.518;7.318;2022-07-29T03:10:28;100716.44;;;17.02;100.00
3917;BME280;1973;50.518;7.318;2022-07-29T03:12:55;100719.16;;;16.97;100.00
3917;BME280;1973;50.518;7.318;2022-07-29T03:15:25;100716.06;;;16.93;100.00
3917;BME280;1973;50.518;7.318;2022-07-29T03:17:52;100719.38;;;16.90;100.00
3917;BME280;1973;50.518;7.318;2022-07-29T03:20:19;100724.34;;;16.88;100.00
3917;BME280;1973;50.518;7.318;2022-07-29T03:22:46;100724.28;;;16.83;100.00
3917;BME280;1973;50.518;7.318;2022-07-29T03:25:15;100730.28;;;16.75;100.00
3917;BME280;1973;50.518;7.318;2022-07-29T03:27:42;100730.72;;;16.67;100.00
3917;BME280;1973;50.518;7.318;2022-07-29T03:30:09;100723.44;;;16.61;100.00
3917;BME280;1973;50.518;7.318;2022-07-29T03:32:36;100720.56;;;16.56;100.00
3917;BME280;1973;50.518;7.318;2022-07-29T03:35:04;100722.41;;;16.50;100.00
3917;BME280;1973;50.518;7.318;2022-07-29T03:37:31;100713.16;;;16.45;100.00
3917;BME280;1973;50.518;7.318;2022-07-29T03:40:02;100711.50;;;16.44;100.00
3917;BME280;1973;50.518;7.318;2022-07-29T03:42:31;100709.19;;;16.41;100.00
3917;BME280;1973;50.518;7.318;2022-07-29T03:45:03;100713.94;;;16.40;100.00
3917;BME280;1973;50.518;7.318;2022-07-29T03:47:33;100712.81;;;16.41;100.00
3917;BME280;1973;50.518;7.318;2022-07-29T03:50:17;100720.91;;;16.43;100.00
3917;BME280;1973;50.518;7.318;2022-07-29T03:52:46;100718.72;;;16.45;100.00
3917;BME280;1973;50.518;7.318;2022-07-29T03:55:13;100718.72;;;16.45;100.00
3917;BME280;1973;50.518;7.318;2022-07-29T03:57:40;100722.34;;;16.45;100.00
3917;BME280;1973;50.518;7.318;2022-07-29T04:00:08;100717.88;;;16.44;100.00
3917;BME280;1973;50.518;7.318;2022-07-29T04:02:36;100721.75;;;16.43;100.00
3917;BME280;1973;50.518;7.318;2022-07-29T04:05:04;100719.22;;;16.42;100.00
3917;BME280;1973;50.518;7.318;2022-07-29T04:07:30;100727.25;;;16.38;100.00
3917;BME280;1973;50.518;7.318;2022-07-29T04:09:57;100730.00;;;16.38;100.00
3917;BME280;1973;50.518;7.318;2022-07-29T04:12:24;100734.16;;;16.36;100.00
3917;BME280;1973;50.518;7.318;2022-07-29T04:14:50;100741.88;;;16.34;100.00
3917;BME280;1973;50.518;7.318;2022-07-29T04:17:17;100746.88;;;16.32;100.00
3917;BME280;1973;50.518;7.318;2022-07-29T04:19:43;100746.88;;;16.32;100.00
3917;BME280;1973;50.518;7.318;2022-07-29T04:22:10;100748.56;;;16.33;100.00
3917;BME280;1973;50.518;7.318;2022-07-29T04:24:36;100753.59;;;16.36;100.00
3917;BME280;1973;50.518;7.318;2022-07-29T04:27:03;100748.91;;;16.36;100.00
3917;BME280;1973;50.518;7.318;2022-07-29T04:29:29;100762.50;;;16.38;100.00
3917;BME280;1973;50.518;7.318;2022-07-29T04:31:56;100759.22;;;16.41;100.00
3917;BME280;1973;50.518;7.318;2022-07-29T04:34:22;100763.69;;;16.42;100.00
3917;BME280;1973;50.518;7.318;2022-07-29T04:36:53;100756.44;;;16.41;100.00
3917;BME280;1973;50.518;7.318;2022-07-29T04:39:20;100768.41;;;16.41;100.00
3917;BME280;1973;50.518;7.318;2022-07-29T04:41:49;100769.25;;;16.42;100.00
3917;BME280;1973;50.518;7.318;2022-07-29T04:44:17;100760.66;;;16.43;100.00
3917;BME280;1973;50.518;7.318;2022-07-29T04:46:45;100766.56;;;16.47;100.00
3917;BME280;1973;50.518;7.318;2022-07-29T04:49:11;100769.91;;;16.49;100.00
3917;BME280;1973;50.518;7.318;2022-07-29T04:51:39;100765.53;;;16.53;100.00
3917;BME280;1973;50.518;7.318;2022-07-29T04:54:06;100773.13;;;16.58;100.00
3917;BME280;1973;50.518;7.318;2022-07-29T04:56:32;100777.94;;;16.62;100.00
3917;BME280;1973;50.518;7.318;2022-07-29T04:58:58;100777.41;;;16.65;100.00
3917;BME280;1973;50.518;7.318;2022-07-29T05:01:25;100785.56;;;16.72;100.00
3917;BME280;1973;50.518;7.318;2022-07-29T05:03:51;100786.75;;;16.76;100.00
3917;BME280;1973;50.518;7.318;2022-07-29T05:06:25;100790.69;;;16.80;100.00
3917;BME280;1973;50.518;7.318;2022-07-29T05:08:51;100785.47;;;16.83;100.00
3917;BME280;1973;50.518;7.318;2022-07-29T05:11:17;100789.41;;;16.87;100.00
3917;BME280;1973;50.518;7.318;2022-07-29T05:13:47;100800.00;;;16.90;100.00
3917;BME280;1973;50.518;7.318;2022-07-29T05:16:14;100803.13;;;16.94;100.00
3917;BME280;1973;50.518;7.318;2022-07-29T05:18:41;100802.94;;;17.00;100.00
3917;BME280;1973;50.518;7.318;2022-07-29T05:21:08;100788.50;;;17.03;100.00
3917;BME280;1973;50.518;7.318;2022-07-29T05:23:34;100801.91;;;17.07;100.00
3917;BME280;1973;50.518;7.318;2022-07-29T05:26:01;100797.25;;;17.12;100.00
3917;BME280;1973;50.518;7.318;2022-07-29T05:28:28;100804.81;;;17.17;100.00
3917;BME280;1973;50.518;7.318;2022-07-29T05:30:54;100801.59;;;17.25;100.00
3917;BME280;1973;50.518;7.318;2022-07-29T05:33:21;100810.81;;;17.30;100.00
3917;BME280;1973;50.518;7.318;2022-07-29T05:36:03;100814.53;;;17.36;100.00
3917;BME280;1973;50.518;7.318;2022-07-29T05:38:31;100819.03;;;17.42;100.00
3917;BME280;1973;50.518;7.318;2022-07-29T05:40:58;100819.97;;;17.47;100.00
3917;BME280;1973;50.518;7.318;2022-07-29T05:43:28;100823.63;;;17.53;100.00
3917;BME280;1973;50.518;7.318;2022-07-29T05:45:55;100827.59;;;17.57;100.00
3917;BME280;1973;50.518;7.318;2022-07-29T05:48:21;100828.78;;;17.61;100.00
3917;BME280;1973;50.518;7.318;2022-07-29T05:50:48;100831.63;;;17.66;100.00
3917;BME280;1973;50.518;7.318;2022-07-29T05:53:14;100833.59;;;17.71;100.00
3917;BME280;1973;50.518;7.318;2022-07-29T05:55:46;100844.03;;;17.80;100.00
3917;BME280;1973;50.518;7.318;2022-07-29T05:58:13;100845.50;;;17.88;100.00
3917;BME280;1973;50.518;7.318;2022-07-29T06:00:39;100853.72;;;17.99;100.00
3917;BME280;1973;50.518;7.318;2022-07-29T06:03:06;100847.63;;;18.08;100.00
3917;BME280;1973;50.518;7.318;2022-07-29T06:05:32;100859.41;;;18.15;100.00
3917;BME280;1973;50.518;7.318;2022-07-29T06:07:59;100859.53;;;18.25;100.00
3917;BME280;1973;50.518;7.318;2022-07-29T06:10:25;100864.09;;;18.36;100.00
3917;BME280;1973;50.518;7.318;2022-07-29T06:12:53;100855.78;;;18.46;100.00
3917;BME280;1973;50.518;7.318;2022-07-29T06:15:19;100858.38;;;18.53;100.00
3917;BME280;1973;50.518;7.318;2022-07-29T06:17:46;100867.13;;;18.66;100.00
3917;BME280;1973;50.518;7.318;2022-07-29T06:20:27;100858.63;;;18.83;100.00
3917;BME280;1973;50.518;7.318;2022-07-29T06:22:56;100852.84;;;19.00;100.00
3917;BME280;1973;50.518;7.318;2022-07-29T06:25:22;100852.69;;;19.16;100.00
3917;BME280;1973;50.518;7.318;2022-07-29T06:27:49;100854.44;;;19.32;100.00
3917;BME280;1973;50.518;7.318;2022-07-29T06:30:15;100852.03;;;19.46;100.00
3917;BME280;1973;50.518;7.318;2022-07-29T06:32:42;100850.34;;;19.55;100.00
3917;BME280;1973;50.518;7.318;2022-07-29T06:35:09;100854.91;;;19.71;100.00
3917;BME280;1973;50.518;7.318;2022-07-29T06:37:55;100856.06;;;19.85;100.00
3917;BME280;1973;50.518;7.318;2022-07-29T06:40:25;100849.66;;;20.00;100.00
3917;BME280;1973;50.518;7.318;2022-07-29T06:43:10;100844.94;;;20.16;100.00
3917;BME280;1973;50.518;7.318;2022-07-29T06:45:37;100844.41;;;20.29;100.00
3917;BME280;1973;50.518;7.318;2022-07-29T06:48:07;100848.63;;;20.42;100.00
3917;BME280;1973;50.518;7.318;2022-07-29T06:50:34;100845.53;;;20.48;100.00
3917;BME280;1973;50.518;7.318;2022-07-29T06:53:00;100842.19;;;20.61;100.00
3917;BME280;1973;50.518;7.318;2022-07-29T06:55:27;100836.28;;;20.68;100.00
3917;BME280;1973;50.518;7.318;2022-07-29T06:57:53;100846.66;;;20.72;99.52
3917;BME280;1973;50.518;7.318;2022-07-29T07:00:20;100852.78;;;20.79;99.25
3917;BME280;1973;50.518;7.318;2022-07-29T07:02:46;100853.63;;;20.85;98.64
3917;BME280;1973;50.518;7.318;2022-07-29T07:05:13;100847.75;;;20.86;98.09
3917;BME280;1973;50.518;7.318;2022-07-29T07:07:39;100845.50;;;20.88;98.23
3917;BME280;1973;50.518;7.318;2022-07-29T07:10:06;100844.38;;;20.89;97.42
3917;BME280;1973;50.518;7.318;2022-07-29T07:12:33;100849.41;;;20.93;96.61
3917;BME280;1973;50.518;7.318;2022-07-29T07:14:59;100849.94;;;21.00;96.41
3917;BME280;1973;50.518;7.318;2022-07-29T07:17:26;100845.47;;;21.09;95.62
3917;BME280;1973;50.518;7.318;2022-07-29T07:19:52;100839.00;;;21.18;94.73
3917;BME280;1973;50.518;7.318;2022-07-29T07:22:19;100835.63;;;21.26;94.22
3917;BME280;1973;50.518;7.318;2022-07-29T07:24:46;100840.34;;;21.36;93.74
3917;BME280;1973;50.518;7.318;2022-07-29T07:27:13;100841.44;;;21.45;93.37
3917;BME280;1973;50.518;7.318;2022-07-29T07:29:39;100841.13;;;21.52;92.72
3917;BME280;1973;50.518;7.318;2022-07-29T07:32:09;100841.66;;;21.59;92.11
3917;BME280;1973;50.518;7.318;2022-07-29T07:34:36;100830.69;;;21.62;91.59
3917;BME280;1973;50.518;7.318;2022-07-29T07:37:04;100832.38;;;21.68;91.39
3917;BME280;1973;50.518;7.318;2022-07-29T07:39:31;100823.94;;;21.68;90.35
3917;BME280;1973;50.518;7.318;2022-07-29T07:41:58;100839.34;;;21.71;89.01
3917;BME280;1973;50.518;7.318;2022-07-29T07:44:24;100835.69;;;21.75;87.54
3917;BME280;1973;50.518;7.318;2022-07-29T07:46:51;100826.97;;;21.77;86.80
3917;BME280;1973;50.518;7.318;2022-07-29T07:49:20;100833.38;;;21.88;86.46
3917;BME280;1973;50.518;7.318;2022-07-29T07:51:47;100828.31;;;21.95;85.77
3917;BME280;1973;50.518;7.318;2022-07-29T07:54:16;100828.25;;;22.00;84.98
3917;BME280;1973;50.518;7.318;2022-07-29T07:56:45;100819.84;;;22.05;84.87
3917;BME280;1973;50.518;7.318;2022-07-29T07:59:18;100813.03;;;22.11;84.18
3917;BME280;1973;50.518;7.318;2022-07-29T08:01:44;100807.66;;;22.19;83.47
3917;BME280;1973;50.518;7.318;2022-07-29T08:04:22;100797.78;;;22.27;82.58
3917;BME280;1973;50.518;7.318;2022-07-29T08:06:53;100810.63;;;22.33;82.01
3917;BME280;1973;50.518;7.318;2022-07-29T08:09:24;100815.09;;;22.34;81.58
3917;BME280;1973;50.518;7.318;2022-07-29T08:11:57;100810.84;;;22.42;80.76
3917;BME280;1973;50.518;7.318;2022-07-29T08:14:23;100802.63;;;22.50;80.10
3917;BME280;1973;50.518;7.318;2022-07-29T08:16:50;100798.75;;;22.46;80.13
3917;BME280;1973;50.518;7.318;2022-07-29T08:19:18;100805.97;;;22.52;79.93
3917;BME280;1973;50.518;7.318;2022-07-29T08:21:44;100804.53;;;22.55;79.55
3917;BME280;1973;50.518;7.318;2022-07-29T08:24:11;100806.47;;;22.59;78.69
3917;BME280;1973;50.518;7.318;2022-07-29T08:26:56;100801.66;;;22.65;78.19
3917;BME280;1973;50.518;7.318;2022-07-29T08:29:22;100800.19;;;22.72;78.29
3917;BME280;1973;50.518;7.318;2022-07-29T08:31:49;100798.16;;;22.78;77.52
3917;BME280;1973;50.518;7.318;2022-07-29T08:34:16;100796.41;;;22.87;77.20
3917;BME280;1973;50.518;7.318;2022-07-29T08:36:42;100798.75;;;22.99;76.54
3917;BME280;1973;50.518;7.318;2022-07-29T08:39:09;100792.22;;;23.08;75.17
3917;BME280;1973;50.518;7.318;2022-07-29T08:41:35;100805.69;;;23.06;74.77
3917;BME280;1973;50.518;7.318;2022-07-29T08:44:02;100798.03;;;23.17;74.46
3917;BME280;1973;50.518;7.318;2022-07-29T08:46:29;100791.59;;;23.11;73.97
3917;BME280;1973;50.518;7.318;2022-07-29T08:48:56;100794.25;;;23.26;73.60
3917;BME280;1973;50.518;7.318;2022-07-29T08:51:23;100792.38;;;23.41;73.07
3917;BME280;1973;50.518;7.318;2022-07-29T08:53:51;100795.38;;;23.49;72.40
3917;BME280;1973;50.518;7.318;2022-07-29T08:56:18;100791.50;;;23.45;72.43
3917;BME280;1973;50.518;7.318;2022-07-29T08:58:46;100792.44;;;23.59;71.58
3917;BME280;1973;50.518;7.318;2022-07-29T09:01:22;100788.56;;;23.74;70.08
3917;BME280;1973;50.518;7.318;2022-07-29T09:04:04;100780.19;;;23.88;69.09
3917;BME280;1973;50.518;7.318;2022-07-29T09:06:36;100773.88;;;23.96;67.79
3917;BME280;1973;50.518;7.318;2022-07-29T09:09:03;100774.56;;;24.06;69.03
3917;BME280;1973;50.518;7.318;2022-07-29T09:11:32;100761.19;;;24.17;67.60
3917;BME280;1973;50.518;7.318;2022-07-29T09:13:58;100770.31;;;24.28;67.48
3917;BME280;1973;50.518;7.318;2022-07-29T09:16:25;100770.97;;;24.38;66.72
3917;BME280;1973;50.518;7.318;2022-07-29T09:19:31;100761.72;;;24.51;61.52
3917;BME280;1973;50.518;7.318;2022-07-29T09:22:01;100768.31;;;24.60;63.99
3917;BME280;1973;50.518;7.318;2022-07-29T09:24:43;100761.84;;;24.73;61.44
3917;BME280;1973;50.518;7.318;2022-07-29T09:27:24;100766.19;;;24.85;59.79
3917;BME280;1973;50.518;7.318;2022-07-29T09:29:56;100751.06;;;24.94;60.33
3917;BME280;1973;50.518;7.318;2022-07-29T09:32:24;100751.06;;;25.08;60.26
3917;BME280;1973;50.518;7.318;2022-07-29T09:34:50;100750.22;;;25.21;59.43
3917;BME280;1973;50.518;7.318;2022-07-29T09:37:27;100761.16;;;25.36;56.77
3917;BME280;1973;50.518;7.318;2022-07-29T09:39:54;100745.63;;;25.52;57.48
3917;BME280;1973;50.518;7.318;2022-07-29T09:42:28;100745.38;;;25.62;53.71
3917;BME280;1973;50.518;7.318;2022-07-29T09:44:55;100745.03;;;25.78;55.21
3917;BME280;1973;50.518;7.318;2022-07-29T09:47:22;100741.94;;;25.88;54.26
3917;BME280;1973;50.518;7.318;2022-07-29T09:49:56;100739.97;;;25.88;52.60
3917;BME280;1973;50.518;7.318;2022-07-29T09:52:28;100744.19;;;25.99;53.11
3917;BME280;1973;50.518;7.318;2022-07-29T09:55:08;100743.25;;;26.04;50.53
3917;BME280;1973;50.518;7.318;2022-07-29T09:57:39;100737.59;;;26.04;52.31
3917;BME280;1973;50.518;7.318;2022-07-29T10:00:08;100722.34;;;26.05;50.89
3917;BME280;1973;50.518;7.318;2022-07-29T10:02:37;100737.06;;;26.02;51.30
3917;BME280;1973;50.518;7.318;2022-07-29T10:05:06;100726.16;;;26.09;50.74
3917;BME280;1973;50.518;7.318;2022-07-29T10:07:44;100726.81;;;26.06;49.03
3917;BME280;1973;50.518;7.318;2022-07-29T10:10:25;100731.16;;;26.26;48.90
3917;BME280;1973;50.518;7.318;2022-07-29T10:13:08;100734.41;;;26.41;47.93
3917;BME280;1973;50.518;7.318;2022-07-29T10:15:42;100725.19;;;26.58;48.36
3917;BME280;1973;50.518;7.318;2022-07-29T10:18:12;100725.72;;;26.60;47.67
3917;BME280;1973;50.518;7.318;2022-07-29T10:20:39;100723.66;;;26.52;47.71
3917;BME280;1973;50.518;7.318;2022-07-29T10:23:05;100728.84;;;26.58;47.69
3917;BME280;1973;50.518;7.318;2022-07-29T10:25:32;100720.44;;;26.67;47.20
3917;BME280;1973;50.518;7.318;2022-07-29T10:27:58;100717.00;;;26.79;47.24
3917;BME280;1973;50.518;7.318;2022-07-29T10:30:25;100713.38;;;26.87;46.57
3917;BME280;1973;50.518;7.318;2022-07-29T10:40:57;100711.38;;;27.44;44.68
3917;BME280;1973;50.518;7.318;2022-07-29T10:43:48;100710.53;;;27.43;44.26
3917;BME280;1973;50.518;7.318;2022-07-29T10:46:17;100713.75;;;27.50;44.35
3917;BME280;1973;50.518;7.318;2022-07-29T10:57:15;100703.97;;;27.74;41.66
3917;BME280;1973;50.518;7.318;2022-07-29T10:59:44;100708.13;;;27.68;42.45
3917;BME280;1973;50.518;7.318;2022-07-29T11:05:09;100710.28;;;27.88;41.97
3917;BME280;1973;50.518;7.318;2022-07-29T11:07:39;100704.28;;;27.64;41.88
3917;BME280;1973;50.518;7.318;2022-07-29T11:10:26;100704.44;;;27.76;41.97
3917;BME280;1973;50.518;7.318;2022-07-29T11:12:57;100699.44;;;27.98;41.63
3917;BME280;1973;50.518;7.318;2022-07-29T11:15:24;100691.97;;;28.11;41.22
3917;BME280;1973;50.518;7.318;2022-07-29T11:20:37;100701.34;;;28.58;39.51
3917;BME280;1973;50.518;7.318;2022-07-29T11:23:31;100695.16;;;28.73;39.05
3917;BME280;1973;50.518;7.318;2022-07-29T11:28:48;100692.75;;;28.84;39.66
3917;BME280;1973;50.518;7.318;2022-07-29T11:31:18;100687.69;;;28.98;39.52
3917;BME280;1973;50.518;7.318;2022-07-29T11:33:45;100686.22;;;29.21;39.28
3917;BME280;1973;50.518;7.318;2022-07-29T11:36:22;100693.75;;;29.46;38.96
3917;BME280;1973;50.518;7.318;2022-07-29T11:39:24;100682.84;;;29.78;36.58
3917;BME280;1973;50.518;7.318;2022-07-29T11:45:09;100666.00;;;30.26;36.58
3917;BME280;1973;50.518;7.318;2022-07-29T11:47:57;100669.31;;;30.28;37.28
3917;BME280;1973;50.518;7.318;2022-07-29T11:50:44;100680.19;;;30.14;37.16
3917;BME280;1973;50.518;7.318;2022-07-29T11:53:12;100685.78;;;30.02;37.17
3917;BME280;1973;50.518;7.318;2022-07-29T11:55:40;100679.84;;;29.95;37.12
3917;BME280;1973;50.518;7.318;2022-07-29T11:58:21;100682.00;;;29.98;36.47
3917;BME280;1973;50.518;7.318;2022-07-29T12:00:50;100665.91;;;30.02;36.88
3917;BME280;1973;50.518;7.318;2022-07-29T12:03:26;100679.91;;;30.07;36.04
3917;BME280;1973;50.518;7.318;2022-07-29T12:06:11;100677.53;;;30.09;36.65
3917;BME280;1973;50.518;7.318;2022-07-29T12:08:41;100687.94;;;30.05;36.30
3917;BME280;1973;50.518;7.318;2022-07-29T12:11:17;100682.19;;;30.14;35.81
3917;BME280;1973;50.518;7.318;2022-07-29T12:13:46;100677.09;;;30.19;36.24
3917;BME280;1973;50.518;7.318;2022-07-29T12:16:14;100677.06;;;30.40;36.13
3917;BME280;1973;50.518;7.318;2022-07-29T12:19:01;100667.38;;;30.53;35.17
3917;BME280;1973;50.518;7.318;2022-07-29T12:21:52;100664.41;;;30.50;35.09
3917;BME280;1973;50.518;7.318;2022-07-29T12:24:22;100665.31;;;30.29;36.04
3917;BME280;1973;50.518;7.318;2022-07-29T12:26:57;100671.97;;;30.13;35.69
3917;BME280;1973;50.518;7.318;2022-07-29T12:29:24;100668.88;;;30.06;36.08
3917;BME280;1973;50.518;7.318;2022-07-29T12:32:02;100666.31;;;30.13;36.16
3917;BME280;1973;50.518;7.318;2022-07-29T12:34:31;100667.00;;;30.42;36.12
3917;BME280;1973;50.518;7.318;2022-07-29T12:36:57;100661.59;;;30.62;35.90
3917;BME280;1973;50.518;7.318;2022-07-29T12:39:24;100673.09;;;30.65;35.74
3917;BME280;1973;50.518;7.318;2022-07-29T12:41:53;100651.88;;;30.51;35.49
3917;BME280;1973;50.518;7.318;2022-07-29T12:44:50;100669.97;;;30.46;35.41
3917;BME280;1973;50.518;7.318;2022-07-29T12:47:18;100654.72;;;30.51;35.64
3917;BME280;1973;50.518;7.318;2022-07-29T12:49:45;100653.09;;;30.74;35.43
3917;BME280;1973;50.518;7.318;2022-07-29T12:52:25;100655.22;;;31.01;34.27
3917;BME280;1973;50.518;7.318;2022-07-29T12:54:52;100653.22;;;31.26;34.66
3917;BME280;1973;50.518;7.318;2022-07-29T12:57:19;100641.66;;;31.47;34.55
3917;BME280;1973;50.518;7.318;2022-07-29T13:00:02;100645.75;;;31.73;33.87
3917;BME280;1973;50.518;7.318;2022-07-29T13:02:29;100625.88;;;31.89;33.99
3917;BME280;1973;50.518;7.318;2022-07-29T13:04:57;100626.50;;;32.10;33.80
3917;BME280;1973;50.518;7.318;2022-07-29T13:07:29;100632.69;;;32.00;33.58
3917;BME280;1973;50.518;7.318;2022-07-29T13:10:17;100626.28;;;31.75;33.95
3917;BME280;1973;50.518;7.318;2022-07-29T13:13:10;100638.06;;;31.62;34.42
3917;BME280;1973;50.518;7.318;2022-07-29T13:15:38;100641.53;;;31.43;34.82
3917;BME280;1973;50.518;7.318;2022-07-29T13:18:26;100635.06;;;31.18;34.77
3917;BME280;1973;50.518;7.318;2022-07-29T13:20:53;100660.69;;;30.82;35.31
3917;BME280;1973;50.518;7.318;2022-07-29T13:23:20;100653.31;;;30.69;35.44
3917;BME280;1973;50.518;7.318;2022-07-29T13:25:46;100653.34;;;30.93;35.78
3917;BME280;1973;50.518;7.318;2022-07-29T13:28:13;100662.47;;;30.99;35.64
3917;BME280;1973;50.518;7.318;2022-07-29T13:30:39;100662.44;;;30.86;35.75
3917;BME280;1973;50.518;7.318;2022-07-29T13:33:10;100665.63;;;30.73;35.58
3917;BME280;1973;50.518;7.318;2022-07-29T13:35:36;100653.53;;;30.52;36.07
3917;BME280;1973;50.518;7.318;2022-07-29T13:38:05;100672.69;;;30.42;35.84
3917;BME280;1973;50.518;7.318;2022-07-29T13:40:31;100671.28;;;30.16;35.96
3917;BME280;1973;50.518;7.318;2022-07-29T13:42:59;100683.09;;;30.06;36.10
3917;BME280;1973;50.518;7.318;2022-07-29T13:45:26;100676.25;;;30.07;36.28
3917;BME280;1973;50.518;7.318;2022-07-29T13:47:54;100657.19;;;30.07;36.60
3917;BME280;1973;50.518;7.318;2022-07-29T13:50:21;100659.31;;;30.10;36.38
3917;BME280;1973;50.518;7.318;2022-07-29T13:52:47;100656.16;;;30.24;36.29
3917;BME280;1973;50.518;7.318;2022-07-29T13:55:14;100649.69;;;30.35;35.91
3917;BME280;1973;50.518;7.318;2022-07-29T13:57:41;100651.09;;;30.41;35.98
3917;BME280;1973;50.518;7.318;2022-07-29T14:00:08;100655.47;;;30.39;35.67